sensor_id;sensor_type;location;lat;lon;timestamp;temperature;humidity
10472;DHT22;5283;48.876;8.962;2023-08-17T00:01:41;18.10;99.90
10472;DHT22;5283;48.876;8.962;2023-08-17T00:04:09;18.00;99.90
10472;DHT22;5283;48.876;8.962;2023-08-17T00:06:35;18.00;99.90
10472;DHT22;5283;48.876;8.962;2023-08-17T00:09:03;17.90;99.90
10472;DHT22;5283;48.876;8.962;2023-08-17T00:11:30;17.90;99.90
10472;DHT22;5283;48.876;8.962;2023-08-17T00:13:57;17.80;99.90
10472;DHT22;5283;48.876;8.962;2023-08-17T00:16:24;17.80;99.90
10472;DHT22;5283;48.876;8.962;2023-08-17T00:18:51;17.80;99.90
10472;DHT22;5283;48.876;8.962;2023-08-17T00:21:19;17.70;99.90
10472;DHT22;5283;48.876;8.962;2023-08-17T00:23:46;17.80;99.90
10472;DHT22;5283;48.876;8.962;2023-08-17T00:26:13;17.80;99.90
10472;DHT22;5283;48.876;8.962;2023-08-17T00:28:40;17.80;99.90
10472;DHT22;5283;48.876;8.962;2023-08-17T00:31:07;17.80;99.90
10472;DHT22;5283;48.876;8.962;2023-08-17T00:33:34;17.60;99.90
10472;DHT22;5283;48.876;8.962;2023-08-17T00:36:01;17.60;99.90
10472;DHT22;5283;48.876;8.962;2023-08-17T00:38:28;17.60;99.90
10472;DHT22;5283;48.876;8.962;2023-08-17T00:40:54;17.70;99.90
10472;DHT22;5283;48.876;8.962;2023-08-17T00:43:23;17.60;99.90
10472;DHT22;5283;48.876;8.962;2023-08-17T00:45:50;17.60;99.90
10472;DHT22;5283;48.876;8.962;2023-08-17T00:48:17;17.60;99.90
10472;DHT22;5283;48.876;8.962;2023-08-17T00:50:44;17.80;99.90
10472;DHT22;5283;48.876;8.962;2023-08-17T00:53:14;17.60;99.90
10472;DHT22;5283;48.876;8.962;2023-08-17T00:55:43;17.60;99.90
10472;DHT22;5283;48.876;8.962;2023-08-17T00:58:10;17.50;99.90
10472;DHT22;5283;48.876;8.962;2023-08-17T01:00:37;17.50;99.90
10472;DHT22;5283;48.876;8.962;2023-08-17T01:03:04;17.40;99.90
10472;DHT22;5283;48.876;8.962;2023-08-17T01:05:32;17.30;99.90
10472;DHT22;5283;48.876;8.962;2023-08-17T01:08:01;17.30;99.90
10472;DHT22;5283;48.876;8.962;2023-08-17T01:13:38;17.40;99.90
10472;DHT22;5283;48.876;8.962;2023-08-17T01:16:13;17.50;99.90
10472;DHT22;5283;48.876;8.962;2023-08-17T01:18:42;17.60;99.90
10472;DHT22;5283;48.876;8.962;2023-08-17T01:21:13;17.80;99.90
10472;DHT22;5283;48.876;8.962;2023-08-17T01:23:45;17.90;99.90
10472;DHT22;5283;48.876;8.962;2023-08-17T01:26:12;17.90;99.90
10472;DHT22;5283;48.876;8.962;2023-08-17T01:28:46;18.00;99.90
10472;DHT22;5283;48.876;8.962;2023-08-17T01:31:43;18.10;99.90
10472;DHT22;5283;48.876;8.962;2023-08-17T01:34:15;18.20;99.90
10472;DHT22;5283;48.876;8.962;2023-08-17T01:36:53;18.20;99.90
10472;DHT22;5283;48.876;8.962;2023-08-17T01:39:27;18.30;99.90
10472;DHT22;5283;48.876;8.962;2023-08-17T01:41:59;18.30;99.90
10472;DHT22;5283;48.876;8.962;2023-08-17T01:44:27;18.30;99.90
10472;DHT22;5283;48.876;8.962;2023-08-17T01:46:55;18.30;99.90
10472;DHT22;5283;48.876;8.962;2023-08-17T01:49:22;18.30;99.90
10472;DHT22;5283;48.876;8.962;2023-08-17T01:51:49;18.30;99.90
10472;DHT22;5283;48.876;8.962;2023-08-17T01:54:16;18.30;99.90
10472;DHT22;5283;48.876;8.962;2023-08-17T01:56:43;18.40;99.90
10472;DHT22;5283;48.876;8.962;2023-08-17T01:59:10;18.40;99.90
10472;DHT22;5283;48.876;8.962;2023-08-17T02:01:37;18.40;99.90
10472;DHT22;5283;48.876;8.962;2023-08-17T02:04:04;18.40;99.90
10472;DHT22;5283;48.876;8.962;2023-08-17T02:06:31;18.50;99.90
10472;DHT22;5283;48.876;8.962;2023-08-17T02:08:58;18.50;99.90
10472;DHT22;5283;48.876;8.962;2023-08-17T02:11:25;18.60;99.90
10472;DHT22;5283;48.876;8.962;2023-08-17T02:13:53;18.60;99.90
10472;DHT22;5283;48.876;8.962;2023-08-17T02:16:20;18.50;99.90
10472;DHT22;5283;48.876;8.962;2023-08-17T02:18:47;18.60;99.90
10472;DHT22;5283;48.876;8.962;2023-08-17T02:21:14;18.50;99.90
10472;DHT22;5283;48.876;8.962;2023-08-17T02:23:40;18.50;99.90
10472;DHT22;5283;48.876;8.962;2023-08-17T02:26:07;18.50;99.90
10472;DHT22;5283;48.876;8.962;2023-08-17T02:28:35;18.60;99.90
10472;DHT22;5283;48.876;8.962;2023-08-17T02:31:02;18.60;99.90
10472;DHT22;5283;48.876;8.962;2023-08-17T02:33:29;18.60;99.90
10472;DHT22;5283;48.876;8.962;2023-08-17T02:35:56;18.60;99.90
10472;DHT22;5283;48.876;8.962;2023-08-17T02:38:23;18.70;99.90
10472;DHT22;5283;48.876;8.962;2023-08-17T02:40:50;18.70;99.90
10472;DHT22;5283;48.876;8.962;2023-08-17T02:43:17;18.60;99.90
10472;DHT22;5283;48.876;8.962;2023-08-17T02:45:53;18.60;99.90
10472;DHT22;5283;48.876;8.962;2023-08-17T02:48:20;18.60;99.90
10472;DHT22;5283;48.876;8.962;2023-08-17T02:50:47;18.60;99.90
10472;DHT22;5283;48.876;8.962;2023-08-17T02:53:13;18.70;99.90
10472;DHT22;5283;48.876;8.962;2023-08-17T02:55:40;18.70;99.90
10472;DHT22;5283;48.876;8.962;2023-08-17T02:58:07;18.60;99.90
10472;DHT22;5283;48.876;8.962;2023-08-17T03:00:34;18.60;99.90
10472;DHT22;5283;48.876;8.962;2023-08-17T03:03:01;18.70;99.90
10472;DHT22;5283;48.876;8.962;2023-08-17T03:05:28;18.70;99.90
10472;DHT22;5283;48.876;8.962;2023-08-17T03:07:55;18.70;99.90
10472;DHT22;5283;48.876;8.962;2023-08-17T03:10:22;18.70;99.90
10472;DHT22;5283;48.876;8.962;2023-08-17T03:12:51;18.70;99.90
10472;DHT22;5283;48.876;8.962;2023-08-17T03:15:18;18.80;99.90
10472;DHT22;5283;48.876;8.962;2023-08-17T03:17:45;18.70;99.90
10472;DHT22;5283;48.876;8.962;2023-08-17T03:20:12;18.70;99.90
10472;DHT22;5283;48.876;8.962;2023-08-17T03:22:39;18.70;99.90
10472;DHT22;5283;48.876;8.962;2023-08-17T03:25:07;18.80;99.90
10472;DHT22;5283;48.876;8.962;2023-08-17T03:27:34;18.80;99.90
10472;DHT22;5283;48.876;8.962;2023-08-17T03:30:01;18.80;99.90
10472;DHT22;5283;48.876;8.962;2023-08-17T03:32:28;18.80;99.90
10472;DHT22;5283;48.876;8.962;2023-08-17T03:34:56;18.80;99.90
10472;DHT22;5283;48.876;8.962;2023-08-17T03:37:23;18.80;99.90
10472;DHT22;5283;48.876;8.962;2023-08-17T03:39:50;18.80;99.90
10472;DHT22;5283;48.876;8.962;2023-08-17T03:42:16;18.80;99.90
10472;DHT22;5283;48.876;8.962;2023-08-17T03:44:43;18.80;99.90
10472;DHT22;5283;48.876;8.962;2023-08-17T03:47:10;18.80;99.90
10472;DHT22;5283;48.876;8.962;2023-08-17T03:49:37;18.80;99.90
10472;DHT22;5283;48.876;8.962;2023-08-17T03:52:04;18.80;99.90
10472;DHT22;5283;48.876;8.962;2023-08-17T03:54:31;18.80;99.90
10472;DHT22;5283;48.876;8.962;2023-08-17T03:56:58;18.90;99.90
10472;DHT22;5283;48.876;8.962;2023-08-17T03:59:25;18.90;99.90
10472;DHT22;5283;48.876;8.962;2023-08-17T04:01:52;18.90;99.90
10472;DHT22;5283;48.876;8.962;2023-08-17T04:04:19;18.90;99.90
10472;DHT22;5283;48.876;8.962;2023-08-17T04:06:46;18.90;99.90
10472;DHT22;5283;48.876;8.962;2023-08-17T04:09:13;19.00;99.90
10472;DHT22;5283;48.876;8.962;2023-08-17T04:11:40;19.00;99.90
10472;DHT22;5283;48.876;8.962;2023-08-17T04:14:07;18.90;99.90
10472;DHT22;5283;48.876;8.962;2023-08-17T04:16:35;19.00;99.90
10472;DHT22;5283;48.876;8.962;2023-08-17T04:19:02;19.00;99.90
10472;DHT22;5283;48.876;8.962;2023-08-17T04:21:29;19.00;99.90
10472;DHT22;5283;48.876;8.962;2023-08-17T04:23:56;19.00;99.90
10472;DHT22;5283;48.876;8.962;2023-08-17T04:26:23;19.10;99.90
10472;DHT22;5283;48.876;8.962;2023-08-17T04:28:51;19.10;99.90
10472;DHT22;5283;48.876;8.962;2023-08-17T04:31:17;19.10;99.90
10472;DHT22;5283;48.876;8.962;2023-08-17T04:33:45;19.20;99.90
10472;DHT22;5283;48.876;8.962;2023-08-17T04:36:12;19.20;99.90
10472;DHT22;5283;48.876;8.962;2023-08-17T04:38:39;19.20;99.90
10472;DHT22;5283;48.876;8.962;2023-08-17T04:41:06;19.20;99.90
10472;DHT22;5283;48.876;8.962;2023-08-17T04:43:32;19.20;99.90
10472;DHT22;5283;48.876;8.962;2023-08-17T04:45:59;19.20;99.90
10472;DHT22;5283;48.876;8.962;2023-08-17T04:48:26;19.20;99.90
10472;DHT22;5283;48.876;8.962;2023-08-17T04:50:53;19.20;99.90
10472;DHT22;5283;48.876;8.962;2023-08-17T04:53:20;19.20;99.90
10472;DHT22;5283;48.876;8.962;2023-08-17T04:55:47;19.20;99.90
10472;DHT22;5283;48.876;8.962;2023-08-17T04:58:13;19.40;99.90
10472;DHT22;5283;48.876;8.962;2023-08-17T05:00:40;19.40;99.90
10472;DHT22;5283;48.876;8.962;2023-08-17T05:03:08;19.50;99.90
10472;DHT22;5283;48.876;8.962;2023-08-17T05:05:37;19.50;99.90
10472;DHT22;5283;48.876;8.962;2023-08-17T05:08:05;19.50;99.90
10472;DHT22;5283;48.876;8.962;2023-08-17T05:10:34;19.50;99.90
10472;DHT22;5283;48.876;8.962;2023-08-17T05:13:01;19.60;99.90
10472;DHT22;5283;48.876;8.962;2023-08-17T05:15:28;19.60;99.90
10472;DHT22;5283;48.876;8.962;2023-08-17T05:17:56;19.70;99.90
10472;DHT22;5283;48.876;8.962;2023-08-17T05:20:23;19.70;99.90
10472;DHT22;5283;48.876;8.962;2023-08-17T05:22:50;19.80;99.90
10472;DHT22;5283;48.876;8.962;2023-08-17T05:25:17;19.90;99.90
10472;DHT22;5283;48.876;8.962;2023-08-17T05:27:44;19.90;99.90
10472;DHT22;5283;48.876;8.962;2023-08-17T05:30:11;20.00;99.90
10472;DHT22;5283;48.876;8.962;2023-08-17T05:32:39;20.10;99.90
10472;DHT22;5283;48.876;8.962;2023-08-17T05:35:07;20.10;99.90
10472;DHT22;5283;48.876;8.962;2023-08-17T05:37:34;20.10;99.90
10472;DHT22;5283;48.876;8.962;2023-08-17T05:40:01;20.10;99.90
10472;DHT22;5283;48.876;8.962;2023-08-17T05:42:28;20.20;99.90
10472;DHT22;5283;48.876;8.962;2023-08-17T05:44:54;20.20;99.90
10472;DHT22;5283;48.876;8.962;2023-08-17T05:47:21;20.20;99.90
10472;DHT22;5283;48.876;8.962;2023-08-17T05:49:48;20.10;99.90
10472;DHT22;5283;48.876;8.962;2023-08-17T05:52:15;20.10;99.90
10472;DHT22;5283;48.876;8.962;2023-08-17T05:54:42;20.00;99.90
10472;DHT22;5283;48.876;8.962;2023-08-17T05:57:10;19.90;99.90
10472;DHT22;5283;48.876;8.962;2023-08-17T05:59:37;19.90;99.90
10472;DHT22;5283;48.876;8.962;2023-08-17T06:02:05;19.90;99.90
10472;DHT22;5283;48.876;8.962;2023-08-17T06:04:32;19.70;99.90
10472;DHT22;5283;48.876;8.962;2023-08-17T06:06:59;19.70;99.90
10472;DHT22;5283;48.876;8.962;2023-08-17T06:09:25;19.80;99.90
10472;DHT22;5283;48.876;8.962;2023-08-17T06:11:52;20.00;99.90
10472;DHT22;5283;48.876;8.962;2023-08-17T06:14:19;20.00;99.90
10472;DHT22;5283;48.876;8.962;2023-08-17T06:16:46;20.20;99.90
10472;DHT22;5283;48.876;8.962;2023-08-17T06:19:13;20.40;99.90
10472;DHT22;5283;48.876;8.962;2023-08-17T06:21:40;20.50;99.90
10472;DHT22;5283;48.876;8.962;2023-08-17T06:24:07;20.50;99.90
10472;DHT22;5283;48.876;8.962;2023-08-17T06:26:34;20.60;99.90
10472;DHT22;5283;48.876;8.962;2023-08-17T06:29:00;20.70;99.90
10472;DHT22;5283;48.876;8.962;2023-08-17T06:31:27;20.80;99.90
10472;DHT22;5283;48.876;8.962;2023-08-17T06:33:54;20.90;99.90
10472;DHT22;5283;48.876;8.962;2023-08-17T06:36:21;20.90;99.90
10472;DHT22;5283;48.876;8.962;2023-08-17T06:38:48;20.90;99.90
10472;DHT22;5283;48.876;8.962;2023-08-17T06:41:16;20.90;99.90
10472;DHT22;5283;48.876;8.962;2023-08-17T06:43:43;21.00;99.90
10472;DHT22;5283;48.876;8.962;2023-08-17T06:46:10;20.90;99.90
10472;DHT22;5283;48.876;8.962;2023-08-17T06:48:36;21.00;99.90
10472;DHT22;5283;48.876;8.962;2023-08-17T06:51:03;21.10;99.90
10472;DHT22;5283;48.876;8.962;2023-08-17T06:53:31;21.10;99.90
10472;DHT22;5283;48.876;8.962;2023-08-17T06:55:59;21.10;99.90
10472;DHT22;5283;48.876;8.962;2023-08-17T06:58:28;21.20;99.90
10472;DHT22;5283;48.876;8.962;2023-08-17T07:00:54;21.30;99.90
10472;DHT22;5283;48.876;8.962;2023-08-17T07:03:21;21.30;99.90
10472;DHT22;5283;48.876;8.962;2023-08-17T07:05:49;21.30;99.90
10472;DHT22;5283;48.876;8.962;2023-08-17T07:08:16;21.30;99.90
10472;DHT22;5283;48.876;8.962;2023-08-17T07:10:43;21.10;99.90
10472;DHT22;5283;48.876;8.962;2023-08-17T07:13:10;21.00;99.90
10472;DHT22;5283;48.876;8.962;2023-08-17T07:15:37;21.10;99.90
10472;DHT22;5283;48.876;8.962;2023-08-17T07:18:04;21.40;99.90
10472;DHT22;5283;48.876;8.962;2023-08-17T07:20:31;21.50;99.90
10472;DHT22;5283;48.876;8.962;2023-08-17T07:22:57;21.50;99.90
10472;DHT22;5283;48.876;8.962;2023-08-17T07:25:25;21.70;99.90
10472;DHT22;5283;48.876;8.962;2023-08-17T07:27:51;21.80;99.90
10472;DHT22;5283;48.876;8.962;2023-08-17T07:30:18;21.90;99.90
10472;DHT22;5283;48.876;8.962;2023-08-17T07:32:45;22.00;99.90
10472;DHT22;5283;48.876;8.962;2023-08-17T07:35:12;22.20;99.90
10472;DHT22;5283;48.876;8.962;2023-08-17T07:37:39;22.40;99.90
10472;DHT22;5283;48.876;8.962;2023-08-17T07:40:08;22.50;99.90
10472;DHT22;5283;48.876;8.962;2023-08-17T07:42:35;22.60;99.90
10472;DHT22;5283;48.876;8.962;2023-08-17T07:45:02;22.70;99.90
10472;DHT22;5283;48.876;8.962;2023-08-17T07:47:34;22.90;99.90
10472;DHT22;5283;48.876;8.962;2023-08-17T07:50:07;22.90;99.90
10472;DHT22;5283;48.876;8.962;2023-08-17T07:52:35;23.00;99.90
10472;DHT22;5283;48.876;8.962;2023-08-17T07:55:02;23.20;99.90
10472;DHT22;5283;48.876;8.962;2023-08-17T07:57:30;23.40;99.90
10472;DHT22;5283;48.876;8.962;2023-08-17T07:59:56;23.20;99.90
10472;DHT22;5283;48.876;8.962;2023-08-17T08:02:23;23.00;99.90
10472;DHT22;5283;48.876;8.962;2023-08-17T08:04:50;23.40;99.90
10472;DHT22;5283;48.876;8.962;2023-08-17T08:07:17;23.60;99.90
10472;DHT22;5283;48.876;8.962;2023-08-17T08:09:44;23.90;99.90
10472;DHT22;5283;48.876;8.962;2023-08-17T08:12:10;23.80;99.90
10472;DHT22;5283;48.876;8.962;2023-08-17T08:14:37;23.30;99.90
10472;DHT22;5283;48.876;8.962;2023-08-17T08:17:04;23.60;99.90
10472;DHT22;5283;48.876;8.962;2023-08-17T08:19:31;24.10;99.90
10472;DHT22;5283;48.876;8.962;2023-08-17T08:21:59;24.50;99.90
10472;DHT22;5283;48.876;8.962;2023-08-17T08:24:26;25.00;99.90
10472;DHT22;5283;48.876;8.962;2023-08-17T08:27:01;25.00;99.90
10472;DHT22;5283;48.876;8.962;2023-08-17T08:29:28;24.90;99.90
10472;DHT22;5283;48.876;8.962;2023-08-17T08:31:55;24.80;99.90
10472;DHT22;5283;48.876;8.962;2023-08-17T08:34:23;24.70;99.90
10472;DHT22;5283;48.876;8.962;2023-08-17T08:36:52;24.80;99.90
10472;DHT22;5283;48.876;8.962;2023-08-17T08:39:18;24.80;99.90
10472;DHT22;5283;48.876;8.962;2023-08-17T08:41:45;24.50;99.90
10472;DHT22;5283;48.876;8.962;2023-08-17T08:44:12;24.30;99.90
10472;DHT22;5283;48.876;8.962;2023-08-17T08:46:40;24.50;99.90
10472;DHT22;5283;48.876;8.962;2023-08-17T08:49:10;24.60;99.90
10472;DHT22;5283;48.876;8.962;2023-08-17T08:51:44;24.70;99.90
10472;DHT22;5283;48.876;8.962;2023-08-17T08:54:13;24.60;99.90
10472;DHT22;5283;48.876;8.962;2023-08-17T08:56:43;24.60;99.90
10472;DHT22;5283;48.876;8.962;2023-08-17T08:59:13;24.50;99.90
10472;DHT22;5283;48.876;8.962;2023-08-17T09:01:40;24.40;99.90
10472;DHT22;5283;48.876;8.962;2023-08-17T09:04:07;24.50;99.90
10472;DHT22;5283;48.876;8.962;2023-08-17T09:06:35;24.60;99.90
10472;DHT22;5283;48.876;8.962;2023-08-17T09:09:04;24.80;99.90
10472;DHT22;5283;48.876;8.962;2023-08-17T09:11:33;24.80;99.90
10472;DHT22;5283;48.876;8.962;2023-08-17T09:14:00;24.80;99.90
10472;DHT22;5283;48.876;8.962;2023-08-17T09:16:27;24.90;99.90
10472;DHT22;5283;48.876;8.962;2023-08-17T09:18:54;25.00;99.90
10472;DHT22;5283;48.876;8.962;2023-08-17T09:21:22;24.90;99.90
10472;DHT22;5283;48.876;8.962;2023-08-17T09:23:56;24.80;99.90
10472;DHT22;5283;48.876;8.962;2023-08-17T09:26:29;24.50;99.90
10472;DHT22;5283;48.876;8.962;2023-08-17T09:28:57;24.50;99.90
10472;DHT22;5283;48.876;8.962;2023-08-17T09:31:25;24.70;99.90
10472;DHT22;5283;48.876;8.962;2023-08-17T09:33:53;24.90;99.90
10472;DHT22;5283;48.876;8.962;2023-08-17T09:36:21;25.20;99.90
10472;DHT22;5283;48.876;8.962;2023-08-17T09:38:49;25.40;99.90
10472;DHT22;5283;48.876;8.962;2023-08-17T09:41:20;25.70;99.90
10472;DHT22;5283;48.876;8.962;2023-08-17T09:43:54;26.10;99.90
10472;DHT22;5283;48.876;8.962;2023-08-17T09:46:21;26.50;99.90
10472;DHT22;5283;48.876;8.962;2023-08-17T09:48:48;26.70;99.90
10472;DHT22;5283;48.876;8.962;2023-08-17T09:51:16;26.80;99.90
10472;DHT22;5283;48.876;8.962;2023-08-17T09:53:43;26.60;99.90
10472;DHT22;5283;48.876;8.962;2023-08-17T09:56:10;26.70;99.90
10472;DHT22;5283;48.876;8.962;2023-08-17T09:58:41;26.80;99.90
10472;DHT22;5283;48.876;8.962;2023-08-17T10:01:09;26.90;99.90
10472;DHT22;5283;48.876;8.962;2023-08-17T10:03:39;26.70;99.90
10472;DHT22;5283;48.876;8.962;2023-08-17T10:06:10;26.20;99.90
10472;DHT22;5283;48.876;8.962;2023-08-17T10:08:50;26.50;99.90
10472;DHT22;5283;48.876;8.962;2023-08-17T10:11:20;26.60;99.90
10472;DHT22;5283;48.876;8.962;2023-08-17T10:13:52;26.80;99.90
10472;DHT22;5283;48.876;8.962;2023-08-17T10:16:26;26.80;99.90
10472;DHT22;5283;48.876;8.962;2023-08-17T10:21:31;27.10;99.90
10472;DHT22;5283;48.876;8.962;2023-08-17T10:23:59;27.00;99.90
10472;DHT22;5283;48.876;8.962;2023-08-17T10:26:26;26.80;99.90
10472;DHT22;5283;48.876;8.962;2023-08-17T10:28:54;26.80;99.90
10472;DHT22;5283;48.876;8.962;2023-08-17T10:31:25;26.70;99.90
10472;DHT22;5283;48.876;8.962;2023-08-17T10:33:52;26.70;99.90
10472;DHT22;5283;48.876;8.962;2023-08-17T10:36:20;26.80;99.90
10472;DHT22;5283;48.876;8.962;2023-08-17T10:38:47;26.80;99.90
10472;DHT22;5283;48.876;8.962;2023-08-17T10:41:14;27.00;99.90
10472;DHT22;5283;48.876;8.962;2023-08-17T10:46:20;26.70;99.90
10472;DHT22;5283;48.876;8.962;2023-08-17T10:48:47;26.50;99.90
10472;DHT22;5283;48.876;8.962;2023-08-17T10:51:14;26.40;99.90
10472;DHT22;5283;48.876;8.962;2023-08-17T10:53:43;26.20;99.90
10472;DHT22;5283;48.876;8.962;2023-08-17T10:56:12;26.10;99.90
10472;DHT22;5283;48.876;8.962;2023-08-17T10:58:42;26.20;99.90
10472;DHT22;5283;48.876;8.962;2023-08-17T11:01:09;26.30;99.90
10472;DHT22;5283;48.876;8.962;2023-08-17T11:03:36;26.30;99.90
10472;DHT22;5283;48.876;8.962;2023-08-17T11:06:17;26.50;99.90
10472;DHT22;5283;48.876;8.962;2023-08-17T11:08:56;26.80;99.90
10472;DHT22;5283;48.876;8.962;2023-08-17T11:11:23;26.90;99.90
10472;DHT22;5283;48.876;8.962;2023-08-17T11:13:50;27.00;99.90
10472;DHT22;5283;48.876;8.962;2023-08-17T11:16:21;26.90;99.90
10472;DHT22;5283;48.876;8.962;2023-08-17T11:18:50;26.90;99.90
10472;DHT22;5283;48.876;8.962;2023-08-17T11:21:18;27.00;99.90
10472;DHT22;5283;48.876;8.962;2023-08-17T11:23:45;27.10;99.90
10472;DHT22;5283;48.876;8.962;2023-08-17T11:26:15;27.20;99.90
10472;DHT22;5283;48.876;8.962;2023-08-17T11:28:42;27.40;99.90
10472;DHT22;5283;48.876;8.962;2023-08-17T11:31:13;27.60;99.90
10472;DHT22;5283;48.876;8.962;2023-08-17T11:33:42;27.50;99.90
10472;DHT22;5283;48.876;8.962;2023-08-17T11:36:09;27.60;99.90
10472;DHT22;5283;48.876;8.962;2023-08-17T11:38:38;27.40;99.90
10472;DHT22;5283;48.876;8.962;2023-08-17T11:41:06;27.20;99.90
10472;DHT22;5283;48.876;8.962;2023-08-17T11:43:43;27.20;99.90
10472;DHT22;5283;48.876;8.962;2023-08-17T11:46:11;27.10;99.90
10472;DHT22;5283;48.876;8.962;2023-08-17T11:48:39;27.40;99.90
10472;DHT22;5283;48.876;8.962;2023-08-17T11:51:05;27.70;99.90
10472;DHT22;5283;48.876;8.962;2023-08-17T11:53:37;28.20;99.90
10472;DHT22;5283;48.876;8.962;2023-08-17T11:56:06;28.40;99.90
10472;DHT22;5283;48.876;8.962;2023-08-17T11:58:47;28.40;99.90
10472;DHT22;5283;48.876;8.962;2023-08-17T12:01:15;28.30;99.90
10472;DHT22;5283;48.876;8.962;2023-08-17T12:03:43;28.10;99.90
10472;DHT22;5283;48.876;8.962;2023-08-17T12:06:10;28.20;99.90
10472;DHT22;5283;48.876;8.962;2023-08-17T12:08:45;28.20;99.90
10472;DHT22;5283;48.876;8.962;2023-08-17T12:11:12;28.40;99.90
10472;DHT22;5283;48.876;8.962;2023-08-17T12:13:39;28.60;99.90
10472;DHT22;5283;48.876;8.962;2023-08-17T12:16:06;28.80;99.90
10472;DHT22;5283;48.876;8.962;2023-08-17T12:18:45;28.60;99.90
10472;DHT22;5283;48.876;8.962;2023-08-17T12:21:12;28.10;99.90
10472;DHT22;5283;48.876;8.962;2023-08-17T12:23:39;27.90;99.90
10472;DHT22;5283;48.876;8.962;2023-08-17T12:26:06;27.70;99.90
10472;DHT22;5283;48.876;8.962;2023-08-17T12:28:33;27.30;99.90
10472;DHT22;5283;48.876;8.962;2023-08-17T12:31:01;27.00;99.90
10472;DHT22;5283;48.876;8.962;2023-08-17T12:33:28;26.90;99.90
10472;DHT22;5283;48.876;8.962;2023-08-17T12:35:55;26.60;99.90
10472;DHT22;5283;48.876;8.962;2023-08-17T12:38:24;26.00;99.90
10472;DHT22;5283;48.876;8.962;2023-08-17T12:40:51;25.50;99.90
10472;DHT22;5283;48.876;8.962;2023-08-17T12:43:18;25.10;99.90
10472;DHT22;5283;48.876;8.962;2023-08-17T12:45:45;24.80;99.90
10472;DHT22;5283;48.876;8.962;2023-08-17T12:48:12;24.40;99.90
10472;DHT22;5283;48.876;8.962;2023-08-17T12:50:39;24.10;99.90
10472;DHT22;5283;48.876;8.962;2023-08-17T12:53:09;23.90;99.90
10472;DHT22;5283;48.876;8.962;2023-08-17T12:55:36;23.70;99.90
10472;DHT22;5283;48.876;8.962;2023-08-17T12:58:03;23.50;99.90
10472;DHT22;5283;48.876;8.962;2023-08-17T13:00:31;23.30;99.90
10472;DHT22;5283;48.876;8.962;2023-08-17T13:02:59;23.30;99.90
10472;DHT22;5283;48.876;8.962;2023-08-17T13:05:26;23.20;99.90
10472;DHT22;5283;48.876;8.962;2023-08-17T13:07:54;23.00;99.90
10472;DHT22;5283;48.876;8.962;2023-08-17T13:10:20;23.00;99.90
10472;DHT22;5283;48.876;8.962;2023-08-17T13:12:47;23.00;99.90
10472;DHT22;5283;48.876;8.962;2023-08-17T13:15:14;22.80;99.90
10472;DHT22;5283;48.876;8.962;2023-08-17T13:17:41;22.80;99.90
10472;DHT22;5283;48.876;8.962;2023-08-17T13:20:08;22.70;99.90
10472;DHT22;5283;48.876;8.962;2023-08-17T13:22:36;22.50;99.90
10472;DHT22;5283;48.876;8.962;2023-08-17T13:25:03;22.50;99.90
10472;DHT22;5283;48.876;8.962;2023-08-17T13:27:30;22.50;99.90
10472;DHT22;5283;48.876;8.962;2023-08-17T13:29:57;22.50;99.90
10472;DHT22;5283;48.876;8.962;2023-08-17T13:32:25;22.50;99.90
10472;DHT22;5283;48.876;8.962;2023-08-17T13:34:52;22.60;99.90
10472;DHT22;5283;48.876;8.962;2023-08-17T13:37:19;22.50;99.90
10472;DHT22;5283;48.876;8.962;2023-08-17T13:39:46;22.60;99.90
10472;DHT22;5283;48.876;8.962;2023-08-17T13:42:13;22.60;99.90
10472;DHT22;5283;48.876;8.962;2023-08-17T13:44:40;22.60;99.90
10472;DHT22;5283;48.876;8.962;2023-08-17T13:47:08;22.70;99.90
10472;DHT22;5283;48.876;8.962;2023-08-17T13:49:35;22.80;99.90
10472;DHT22;5283;48.876;8.962;2023-08-17T13:52:02;22.90;99.90
10472;DHT22;5283;48.876;8.962;2023-08-17T13:54:29;23.10;99.90
10472;DHT22;5283;48.876;8.962;2023-08-17T13:56:56;23.30;99.90
10472;DHT22;5283;48.876;8.962;2023-08-17T13:59:22;23.50;99.90
10472;DHT22;5283;48.876;8.962;2023-08-17T14:01:49;23.80;99.90
10472;DHT22;5283;48.876;8.962;2023-08-17T14:04:16;23.80;99.90
10472;DHT22;5283;48.876;8.962;2023-08-17T14:06:44;23.90;99.90
10472;DHT22;5283;48.876;8.962;2023-08-17T14:09:11;23.90;99.90
10472;DHT22;5283;48.876;8.962;2023-08-17T14:11:38;23.90;99.90
10472;DHT22;5283;48.876;8.962;2023-08-17T14:14:05;23.80;99.90
10472;DHT22;5283;48.876;8.962;2023-08-17T14:16:33;23.80;99.90
10472;DHT22;5283;48.876;8.962;2023-08-17T14:19:00;23.80;99.90
10472;DHT22;5283;48.876;8.962;2023-08-17T14:21:26;23.90;99.90
10472;DHT22;5283;48.876;8.962;2023-08-17T14:23:53;23.80;99.90
10472;DHT22;5283;48.876;8.962;2023-08-17T14:26:20;23.80;99.90
10472;DHT22;5283;48.876;8.962;2023-08-17T14:28:47;23.90;99.90
10472;DHT22;5283;48.876;8.962;2023-08-17T14:31:13;24.10;99.90
10472;DHT22;5283;48.876;8.962;2023-08-17T14:33:44;24.30;99.90
10472;DHT22;5283;48.876;8.962;2023-08-17T14:36:14;24.50;99.90
10472;DHT22;5283;48.876;8.962;2023-08-17T14:38:44;24.50;99.90
10472;DHT22;5283;48.876;8.962;2023-08-17T14:41:12;24.50;99.90
10472;DHT22;5283;48.876;8.962;2023-08-17T14:43:42;24.50;99.90
10472;DHT22;5283;48.876;8.962;2023-08-17T14:46:09;24.70;99.90
10472;DHT22;5283;48.876;8.962;2023-08-17T14:48:40;25.00;99.90
10472;DHT22;5283;48.876;8.962;2023-08-17T14:51:07;25.10;99.90
10472;DHT22;5283;48.876;8.962;2023-08-17T14:53:34;25.50;99.90
10472;DHT22;5283;48.876;8.962;2023-08-17T14:56:04;25.80;99.90
10472;DHT22;5283;48.876;8.962;2023-08-17T14:58:31;26.20;99.90
10472;DHT22;5283;48.876;8.962;2023-08-17T15:00:58;26.50;99.90
10472;DHT22;5283;48.876;8.962;2023-08-17T15:03:25;26.80;99.90
10472;DHT22;5283;48.876;8.962;2023-08-17T15:05:52;27.20;99.90
10472;DHT22;5283;48.876;8.962;2023-08-17T15:08:19;27.50;99.90
10472;DHT22;5283;48.876;8.962;2023-08-17T15:10:46;27.70;99.90
10472;DHT22;5283;48.876;8.962;2023-08-17T15:13:14;27.80;99.90
10472;DHT22;5283;48.876;8.962;2023-08-17T15:15:42;27.90;99.90
10472;DHT22;5283;48.876;8.962;2023-08-17T15:18:10;28.00;99.90
10472;DHT22;5283;48.876;8.962;2023-08-17T15:20:36;28.00;99.90
10472;DHT22;5283;48.876;8.962;2023-08-17T15:23:09;28.00;99.90
10472;DHT22;5283;48.876;8.962;2023-08-17T15:25:36;28.10;99.90
10472;DHT22;5283;48.876;8.962;2023-08-17T15:28:05;28.20;99.90
10472;DHT22;5283;48.876;8.962;2023-08-17T15:30:32;28.30;99.90
10472;DHT22;5283;48.876;8.962;2023-08-17T15:32:59;28.40;99.90
10472;DHT22;5283;48.876;8.962;2023-08-17T15:35:26;28.10;99.90
10472;DHT22;5283;48.876;8.962;2023-08-17T15:37:52;27.50;99.90
10472;DHT22;5283;48.876;8.962;2023-08-17T15:40:19;27.60;99.90
10472;DHT22;5283;48.876;8.962;2023-08-17T15:42:46;27.80;99.90
10472;DHT22;5283;48.876;8.962;2023-08-17T15:45:14;28.10;99.90
10472;DHT22;5283;48.876;8.962;2023-08-17T15:47:40;28.30;99.90
10472;DHT22;5283;48.876;8.962;2023-08-17T15:50:07;28.60;99.90
10472;DHT22;5283;48.876;8.962;2023-08-17T15:52:36;28.70;99.90
10472;DHT22;5283;48.876;8.962;2023-08-17T15:55:03;28.70;99.90
10472;DHT22;5283;48.876;8.962;2023-08-17T15:57:30;28.60;99.90